Time;durP1;ratioP1;P1;durP2;ratioP2;P2;SDS_P1;SDS_P2;PMS_P1;PMS_P2;Temp;Humidity;BMP_temperature;BMP_pressure;BME280_temperature;BME280_humidity;BME280_pressure;Samples;Min_cycle;Max_cycle;Signal;HPM_P1;HPM_P2
2020/12/12 15:14:47;;;;;;;5.82;3.22;;;;;;;;;;6183224;23;20032;-91
2020/12/12 15:17:13;;;;;;;4.78;2.88;;;;;;;;;;6185777;23;20005;-89
2020/12/12 15:19:39;;;;;;;2.60;2.20;;;;;;;;;;6184956;23;20009;-89
2020/12/12 15:22:06;;;;;;;6.15;2.97;;;;;;;;;;6184954;23;20329;-89
2020/12/12 15:24:32;;;;;;;;;;;;;;;;;;6185386;23;20416;-87
2020/12/12 15:26:58;;;;;;;8.57;3.83;;;;;;;;;;6184723;23;19954;-89
2020/12/12 15:29:24;;;;;;;5.30;3.15;;;;;;;;;;6186371;23;20305;-90
2020/12/12 15:31:50;;;;;;;3.67;2.75;;;;;;;;;;6186523;23;20401;-90
2020/12/12 15:34:17;;;;;;;6.00;3.05;;;;;;;;;;6181836;23;20040;-89
2020/12/12 15:36:43;;;;;;;;;;;;;;;;;;6186325;23;20003;-89
2020/12/12 15:39:09;;;;;;;10.77;6.55;;;;;;;;;;6186305;23;19924;-89
2020/12/12 15:41:35;;;;;;;5.50;4.03;;;;;;;;;;6186694;23;20008;-90
2020/12/12 15:44:20;;;;;;;6.03;3.50;;;;;;;;;;6185359;23;20092;-89
2020/12/12 15:46:47;;;;;;;7.45;3.63;;;;;;;;;;6185173;23;20424;-92
2020/12/12 15:49:16;;;;;;;6.93;4.32;;;;;;;;;;6189612;23;20031;-96
2020/12/12 15:51:44;;;;;;;19.45;10.02;;;;;;;;;;6191578;23;20004;-94
2020/12/12 15:54:39;;;;;;;11.20;6.57;;;;;;;;;;6184622;23;20016;-96
2020/12/12 15:59:57;;;;;;;14.18;9.63;;;;;;;;;;6237832;22;20000;-95
2020/12/12 16:02:24;;;;;;;8.65;6.75;;;;;;;;;;6191131;23;20416;-95
2020/12/12 16:04:52;;;;;;;14.93;9.55;;;;;;;;;;6201813;23;20088;-96
2020/12/12 16:07:18;;;;;;;8.13;6.28;;;;;;;;;;6227866;23;20058;-96
2020/12/12 16:09:44;;;;;;;4.60;4.18;;;;;;;;;;6201480;23;20005;-96
2020/12/12 16:12:10;;;;;;;3.88;3.17;;;;;;;;;;6203208;23;20005;-96
2020/12/12 16:14:36;;;;;;;4.95;3.80;;;;;;;;;;6203049;23;20001;-96
2020/12/12 16:17:02;;;;;;;8.18;4.80;;;;;;;;;;6207949;23;20035;-96
2020/12/12 16:19:29;;;;;;;7.40;5.13;;;;;;;;;;6207978;23;20052;-96
2020/12/12 16:21:56;;;;;;;7.25;5.03;;;;;;;;;;6205801;23;20011;-96
2020/12/12 16:24:22;;;;;;;17.35;8.77;;;;;;;;;;6206192;23;20005;-96
2020/12/12 16:26:48;;;;;;;20.20;12.52;;;;;;;;;;6207022;23;20009;-96
2020/12/12 16:29:14;;;;;;;;;;;;;;;;;;6207264;23;20032;-96
2020/12/12 16:31:40;;;;;;;8.63;4.60;;;;;;;;;;6235047;23;19900;-96
2020/12/12 16:34:06;;;;;;;8.20;4.35;;;;;;;;;;6203263;23;20009;-96
2020/12/12 16:36:32;;;;;;;;;;;;;;;;;;6203301;23;20011;-96
2020/12/12 16:38:58;;;;;;;6.90;4.45;;;;;;;;;;6230658;23;19900;-96
2020/12/12 16:41:25;;;;;;;9.55;5.55;;;;;;;;;;6205771;23;20009;-96
2020/12/12 16:43:51;;;;;;;16.80;9.07;;;;;;;;;;6206197;23;20015;-96
2020/12/12 16:46:17;;;;;;;21.55;10.45;;;;;;;;;;6204892;23;20095;-96
2020/12/12 16:48:43;;;;;;;31.95;16.20;;;;;;;;;;6205663;23;19997;-96
2020/12/12 16:51:09;;;;;;;15.55;9.13;;;;;;;;;;6205452;23;20015;-96
2020/12/12 16:53:35;;;;;;;15.18;8.10;;;;;;;;;;6203350;23;20008;-96
2020/12/12 16:56:01;;;;;;;13.77;7.60;;;;;;;;;;6204696;23;20035;-96
2020/12/12 16:58:28;;;;;;;14.80;7.97;;;;;;;;;;6240352;23;20053;-96
2020/12/12 17:00:56;;;;;;;15.10;8.15;;;;;;;;;;6204002;23;20009;-96
2020/12/12 17:03:22;;;;;;;8.20;5.18;;;;;;;;;;6231631;23;19997;-96
2020/12/12 17:05:49;;;;;;;13.65;6.55;;;;;;;;;;6196993;23;20020;-96
2020/12/12 17:08:15;;;;;;;9.02;6.07;;;;;;;;;;6223634;23;20432;-96
2020/12/12 17:13:25;;;;;;;8.75;5.45;;;;;;;;;;6218268;22;20036;-96
2020/12/12 17:15:51;;;;;;;6.70;5.22;;;;;;;;;;6194526;23;20009;-96
2020/12/12 17:18:19;;;;;;;9.60;7.03;;;;;;;;;;6196376;23;20025;-96
2020/12/12 17:20:45;;;;;;;13.20;11.02;;;;;;;;;;6201599;23;20001;-96
2020/12/12 17:28:52;;;;;;;12.93;6.40;;;;;;;;;;6180945;23;20025;-96
2020/12/12 17:31:18;;;;;;;16.77;8.50;;;;;;;;;;6179568;23;20009;-95
2020/12/12 17:36:25;;;;;;;11.57;6.82;;;;;;;;;;6202003;23;20013;-96
2020/12/12 17:38:53;;;;;;;12.93;8.43;;;;;;;;;;6181731;23;19990;-95
2020/12/12 17:41:19;;;;;;;7.65;6.60;;;;;;;;;;6206406;23;20092;-96
2020/12/12 17:43:51;;;;;;;8.57;5.88;;;;;;;;;;6205069;23;20425;-95
2020/12/12 17:46:18;;;;;;;8.23;5.43;;;;;;;;;;6194791;22;20037;-96
2020/12/12 17:48:44;;;;;;;24.67;13.23;;;;;;;;;;6194135;23;20009;-94
2020/12/12 17:51:10;;;;;;;;;;;;;;;;;;6189806;23;20425;-96
2020/12/12 17:53:36;;;;;;;11.07;5.72;;;;;;;;;;6187908;23;19906;-94
2020/12/12 17:56:03;;;;;;;10.50;6.68;;;;;;;;;;6186217;23;20040;-95
2020/12/12 17:58:29;;;;;;;8.52;5.45;;;;;;;;;;6186905;23;20008;-96
2020/12/12 18:00:55;;;;;;;8.90;6.00;;;;;;;;;;6190955;23;20005;-94
2020/12/12 18:03:22;;;;;;;7.75;5.15;;;;;;;;;;6188566;23;20016;-95
2020/12/12 18:05:49;;;;;;;11.15;7.40;;;;;;;;;;6186889;23;20025;-92
2020/12/12 18:08:15;;;;;;;16.42;11.55;;;;;;;;;;6183237;23;20005;-96
2020/12/12 18:10:42;;;;;;;17.95;12.32;;;;;;;;;;6187745;23;20013;-96
2020/12/12 18:13:09;;;;;;;15.85;9.20;;;;;;;;;;6190272;23;20001;-91
2020/12/12 18:15:36;;;;;;;25.45;13.85;;;;;;;;;;6189183;23;20013;-96
2020/12/12 18:18:02;;;;;;;22.63;13.15;;;;;;;;;;6187269;23;20001;-96
2020/12/12 18:20:28;;;;;;;12.30;7.85;;;;;;;;;;6186857;23;20045;-93
2020/12/12 18:22:54;;;;;;;12.50;8.63;;;;;;;;;;6185878;23;20336;-95
2020/12/12 18:25:20;;;;;;;22.00;12.25;;;;;;;;;;6185095;23;20009;-95
2020/12/12 18:27:51;;;;;;;25.08;13.32;;;;;;;;;;6186273;23;20091;-95
2020/12/12 18:30:18;;;;;;;23.33;12.80;;;;;;;;;;6187638;23;20001;-95
2020/12/12 18:32:44;;;;;;;31.88;16.73;;;;;;;;;;6186758;23;20000;-95
